sensor_id;sensor_type;location;lat;lon;timestamp;pressure;altitude;pressure_sealevel;temperature;humidity
1207;BME280;593;53.184;8.216;2023-02-22T00:00:20;101242.56;;;11.71;100.00
1207;BME280;593;53.184;8.216;2023-02-22T00:03:01;101238.16;;;11.65;100.00
1207;BME280;593;53.184;8.216;2023-02-22T00:05:27;101231.34;;;11.63;100.00
1207;BME280;593;53.184;8.216;2023-02-22T00:07:55;101234.66;;;11.70;100.00
1207;BME280;593;53.184;8.216;2023-02-22T00:10:22;101234.66;;;11.70;100.00
1207;BME280;593;53.184;8.216;2023-02-22T00:12:50;101228.41;;;11.69;100.00
1207;BME280;593;53.184;8.216;2023-02-22T00:15:18;101231.94;;;11.70;100.00
1207;BME280;593;53.184;8.216;2023-02-22T00:17:45;101225.09;;;11.67;100.00
1207;BME280;593;53.184;8.216;2023-02-22T00:20:11;101219.91;;;11.66;100.00
1207;BME280;593;53.184;8.216;2023-02-22T00:22:45;101217.72;;;11.68;100.00
1207;BME280;593;53.184;8.216;2023-02-22T00:25:13;101219.91;;;11.66;100.00
1207;BME280;593;53.184;8.216;2023-02-22T00:27:38;101214.22;;;11.62;100.00
1207;BME280;593;53.184;8.216;2023-02-22T00:30:04;101219.38;;;11.64;100.00
1207;BME280;593;53.184;8.216;2023-02-22T00:32:30;101221.81;;;11.65;100.00
1207;BME280;593;53.184;8.216;2023-02-22T00:34:56;101215.81;;;11.63;100.00
1207;BME280;593;53.184;8.216;2023-02-22T00:37:21;101215.81;;;11.63;100.00
1207;BME280;593;53.184;8.216;2023-02-22T00:39:48;101210.13;;;11.65;100.00
1207;BME280;593;53.184;8.216;2023-02-22T00:42:14;101204.41;;;11.56;100.00
1207;BME280;593;53.184;8.216;2023-02-22T00:44:40;101214.22;;;11.62;100.00
1207;BME280;593;53.184;8.216;2023-02-22T00:47:05;101214.22;;;11.62;100.00
1207;BME280;593;53.184;8.216;2023-02-22T00:49:30;101216.94;;;11.62;100.00
1207;BME280;593;53.184;8.216;2023-02-22T00:51:56;101208.78;;;11.57;100.00
1207;BME280;593;53.184;8.216;2023-02-22T00:54:21;101210.66;;;11.62;100.00
1207;BME280;593;53.184;8.216;2023-02-22T00:56:47;101208.19;;;11.60;100.00
1207;BME280;593;53.184;8.216;2023-02-22T00:59:14;101194.59;;;11.55;100.00
1207;BME280;593;53.184;8.216;2023-02-22T01:01:40;101198.97;;;11.56;100.00
1207;BME280;593;53.184;8.216;2023-02-22T01:04:07;101193.22;;;11.57;100.00
1207;BME280;593;53.184;8.216;2023-02-22T01:06:32;101195.69;;;11.59;100.00
1207;BME280;593;53.184;8.216;2023-02-22T01:08:58;101189.97;;;11.55;100.00
1207;BME280;593;53.184;8.216;2023-02-22T01:11:24;101173.94;;;11.44;100.00
1207;BME280;593;53.184;8.216;2023-02-22T01:13:49;101181.25;;;11.58;100.00
1207;BME280;593;53.184;8.216;2023-02-22T01:16:18;101180.41;;;11.58;100.00
1207;BME280;593;53.184;8.216;2023-02-22T01:18:44;101181.78;;;11.55;100.00
1207;BME280;593;53.184;8.216;2023-02-22T01:21:09;101176.88;;;11.57;100.00
1207;BME280;593;53.184;8.216;2023-02-22T01:23:35;101185.63;;;11.59;100.00
1207;BME280;593;53.184;8.216;2023-02-22T01:26:00;101176.09;;;11.57;100.00
1207;BME280;593;53.184;8.216;2023-02-22T01:28:26;101180.72;;;11.56;100.00
1207;BME280;593;53.184;8.216;2023-02-22T01:30:53;101174.16;;;11.52;100.00
1207;BME280;593;53.184;8.216;2023-02-22T01:33:20;101173.63;;;11.55;100.00
1207;BME280;593;53.184;8.216;2023-02-22T01:35:45;101169.28;;;11.49;100.00
1207;BME280;593;53.184;8.216;2023-02-22T01:38:11;101178.25;;;11.55;100.00
1207;BME280;593;53.184;8.216;2023-02-22T01:40:45;101168.47;;;11.54;100.00
1207;BME280;593;53.184;8.216;2023-02-22T01:43:23;101161.09;;;11.54;100.00
1207;BME280;593;53.184;8.216;2023-02-22T01:46:05;101161.91;;;11.55;100.00
1207;BME280;593;53.184;8.216;2023-02-22T01:48:38;101163.84;;;11.54;100.00
1207;BME280;593;53.184;8.216;2023-02-22T01:51:12;101161.09;;;11.54;100.00
1207;BME280;593;53.184;8.216;2023-02-22T01:53:43;101154.56;;;11.50;100.00
1207;BME280;593;53.184;8.216;2023-02-22T01:56:11;101159.47;;;11.53;100.00
1207;BME280;593;53.184;8.216;2023-02-22T01:58:40;101156.19;;;11.51;100.00
1207;BME280;593;53.184;8.216;2023-02-22T02:01:07;101163.25;;;11.52;100.00
1207;BME280;593;53.184;8.216;2023-02-22T02:03:35;101148.56;;;11.48;100.00
1207;BME280;593;53.184;8.216;2023-02-22T02:06:05;101162.19;;;11.53;100.00
1207;BME280;593;53.184;8.216;2023-02-22T02:08:37;101157.81;;;11.52;100.00
1207;BME280;593;53.184;8.216;2023-02-22T02:11:07;101151.56;;;11.52;100.00
1207;BME280;593;53.184;8.216;2023-02-22T02:13:34;101150.75;;;11.51;100.00
1207;BME280;593;53.184;8.216;2023-02-22T02:15:59;101151.31;;;11.48;100.00
1207;BME280;593;53.184;8.216;2023-02-22T02:18:26;101144.50;;;11.46;100.00
1207;BME280;593;53.184;8.216;2023-02-22T02:23:53;101149.66;;;11.47;100.00
1207;BME280;593;53.184;8.216;2023-02-22T02:34:30;101134.16;;;11.43;100.00
1207;BME280;593;53.184;8.216;2023-02-22T02:37:21;101132.53;;;11.42;100.00
1207;BME280;593;53.184;8.216;2023-02-22T02:39:58;101086.03;;;11.13;100.00
1207;BME280;593;53.184;8.216;2023-02-22T02:42:38;101133.09;;;11.39;100.00
1207;BME280;593;53.184;8.216;2023-02-22T02:45:18;101123.81;;;11.35;100.00
1207;BME280;593;53.184;8.216;2023-02-22T02:47:50;101127.88;;;11.37;100.00
1207;BME280;593;53.184;8.216;2023-02-22T02:50:23;101117.56;;;11.34;100.00
1207;BME280;593;53.184;8.216;2023-02-22T02:52:53;101116.75;;;11.34;100.00
1207;BME280;593;53.184;8.216;2023-02-22T02:55:19;101122.44;;;11.37;100.00
1207;BME280;593;53.184;8.216;2023-02-22T02:57:45;101104.50;;;11.26;100.00
1207;BME280;593;53.184;8.216;2023-02-22T03:00:13;101115.09;;;11.33;100.00
1207;BME280;593;53.184;8.216;2023-02-22T03:08:07;101090.59;;;11.28;100.00
1207;BME280;593;53.184;8.216;2023-02-22T03:10:44;101100.66;;;11.32;100.00
1207;BME280;593;53.184;8.216;2023-02-22T03:13:32;101099.06;;;11.31;100.00
1207;BME280;593;53.184;8.216;2023-02-22T03:19:39;101098.53;;;11.29;100.00
1207;BME280;593;53.184;8.216;2023-02-22T03:22:13;101097.69;;;11.29;100.00
1207;BME280;593;53.184;8.216;2023-02-22T03:24:48;101095.00;;;11.24;100.00
1207;BME280;593;53.184;8.216;2023-02-22T03:27:22;101096.34;;;11.26;100.00
1207;BME280;593;53.184;8.216;2023-02-22T03:29:54;101089.53;;;11.24;100.00
1207;BME280;593;53.184;8.216;2023-02-22T03:32:24;101091.72;;;11.27;100.00
1207;BME280;593;53.184;8.216;2023-02-22T03:34:58;101098.78;;;11.28;100.00
1207;BME280;593;53.184;8.216;2023-02-22T03:37:30;101093.09;;;11.24;100.00
1207;BME280;593;53.184;8.216;2023-02-22T03:39:59;101090.06;;;11.26;100.00
1207;BME280;593;53.184;8.216;2023-02-22T03:42:29;101094.44;;;11.27;100.00
1207;BME280;593;53.184;8.216;2023-02-22T03:44:58;101094.69;;;11.25;100.00
1207;BME280;593;53.184;8.216;2023-02-22T03:47:40;101091.44;;;11.23;100.00
1207;BME280;593;53.184;8.216;2023-02-22T03:50:14;101096.59;;;11.25;100.00
1207;BME280;593;53.184;8.216;2023-02-22T03:52:41;101093.63;;;11.26;100.00
1207;BME280;593;53.184;8.216;2023-02-22T03:55:09;101098.53;;;11.24;100.00
1207;BME280;593;53.184;8.216;2023-02-22T03:57:39;101093.63;;;11.26;100.00
1207;BME280;593;53.184;8.216;2023-02-22T04:00:09;101087.06;;;11.22;100.00
1207;BME280;593;53.184;8.216;2023-02-22T04:02:35;101084.34;;;11.22;100.00
1207;BME280;593;53.184;8.216;2023-02-22T04:05:01;101081.38;;;11.19;100.00
1207;BME280;593;53.184;8.216;2023-02-22T04:07:26;101084.91;;;11.24;100.00
1207;BME280;593;53.184;8.216;2023-02-22T04:09:52;101090.38;;;11.24;100.00
1207;BME280;593;53.184;8.216;2023-02-22T04:12:17;101080.56;;;11.18;100.00
1207;BME280;593;53.184;8.216;2023-02-22T04:14:42;101086.28;;;11.22;100.00
1207;BME280;593;53.184;8.216;2023-02-22T04:17:08;101086.53;;;11.20;100.00
1207;BME280;593;53.184;8.216;2023-02-22T04:19:34;101089.81;;;11.22;100.00
1207;BME280;593;53.184;8.216;2023-02-22T04:21:59;101082.44;;;11.23;100.00
1207;BME280;593;53.184;8.216;2023-02-22T04:24:25;101076.75;;;11.19;100.00
1207;BME280;593;53.184;8.216;2023-02-22T04:26:50;101073.75;;;11.21;100.00
1207;BME280;593;53.184;8.216;2023-02-22T04:29:15;101070.78;;;11.17;100.00
1207;BME280;593;53.184;8.216;2023-02-22T04:31:41;101072.41;;;11.18;100.00
1207;BME280;593;53.184;8.216;2023-02-22T04:34:06;101073.50;;;11.17;100.00
1207;BME280;593;53.184;8.216;2023-02-22T04:36:31;101079.75;;;11.18;100.00
1207;BME280;593;53.184;8.216;2023-02-22T04:38:58;101081.69;;;11.17;100.00
1207;BME280;593;53.184;8.216;2023-02-22T04:41:23;101070.22;;;11.15;100.00
1207;BME280;593;53.184;8.216;2023-02-22T04:43:49;101071.56;;;11.18;100.00
1207;BME280;593;53.184;8.216;2023-02-22T04:46:14;101055.00;;;11.14;100.00
1207;BME280;593;53.184;8.216;2023-02-22T04:48:40;101061.50;;;11.18;100.00
1207;BME280;593;53.184;8.216;2023-02-22T04:51:06;101058.78;;;11.18;100.00
1207;BME280;593;53.184;8.216;2023-02-22T04:53:33;101053.88;;;11.15;100.00
1207;BME280;593;53.184;8.216;2023-02-22T04:55:58;101052.28;;;11.14;100.00
1207;BME280;593;53.184;8.216;2023-02-22T04:58:24;101046.56;;;11.11;100.00
1207;BME280;593;53.184;8.216;2023-02-22T05:00:49;101056.59;;;11.15;100.00
1207;BME280;593;53.184;8.216;2023-02-22T05:03:14;101051.44;;;11.14;100.00
1207;BME280;593;53.184;8.216;2023-02-22T05:05:40;101041.66;;;11.08;100.00
1207;BME280;593;53.184;8.216;2023-02-22T05:08:05;101045.19;;;11.13;100.00
1207;BME280;593;53.184;8.216;2023-02-22T05:10:31;101023.97;;;11.05;100.00
1207;BME280;593;53.184;8.216;2023-02-22T05:12:57;101033.75;;;11.11;100.00
1207;BME280;593;53.184;8.216;2023-02-22T05:15:22;101039.22;;;11.11;100.00
1207;BME280;593;53.184;8.216;2023-02-22T05:17:50;101042.47;;;11.13;100.00
1207;BME280;593;53.184;8.216;2023-02-22T05:20:27;101029.41;;;11.05;100.00
1207;BME280;593;53.184;8.216;2023-02-22T05:22:57;101027.50;;;11.11;100.00
1207;BME280;593;53.184;8.216;2023-02-22T05:25:23;101033.78;;;11.06;100.00
1207;BME280;593;53.184;8.216;2023-02-22T05:27:53;101025.63;;;11.06;100.00
1207;BME280;593;53.184;8.216;2023-02-22T05:30:24;101027.25;;;11.07;100.00
1207;BME280;593;53.184;8.216;2023-02-22T05:32:51;101035.16;;;11.04;100.00
1207;BME280;593;53.184;8.216;2023-02-22T05:35:22;101017.47;;;11.01;100.00
1207;BME280;593;53.184;8.216;2023-02-22T05:37:48;101021.56;;;10.99;100.00
1207;BME280;593;53.184;8.216;2023-02-22T05:40:16;101009.31;;;10.96;100.00
1207;BME280;593;53.184;8.216;2023-02-22T05:42:42;101022.38;;;10.99;100.00
1207;BME280;593;53.184;8.216;2023-02-22T05:45:10;101004.69;;;10.97;100.00
1207;BME280;593;53.184;8.216;2023-02-22T05:47:36;100997.88;;;10.94;100.00
1207;BME280;593;53.184;8.216;2023-02-22T05:50:01;100994.06;;;10.90;100.00
1207;BME280;593;53.184;8.216;2023-02-22T05:52:26;100980.47;;;10.85;100.00
1207;BME280;593;53.184;8.216;2023-02-22T05:54:52;100990.28;;;10.91;100.00
1207;BME280;593;53.184;8.216;2023-02-22T05:57:17;101003.59;;;10.87;100.00
1207;BME280;593;53.184;8.216;2023-02-22T05:59:42;101007.97;;;10.88;100.00
1207;BME280;593;53.184;8.216;2023-02-22T06:02:08;101004.44;;;10.88;100.00
1207;BME280;593;53.184;8.216;2023-02-22T06:04:34;100977.22;;;10.78;100.00
1207;BME280;593;53.184;8.216;2023-02-22T06:07:00;100996.25;;;10.88;100.00
1207;BME280;593;53.184;8.216;2023-02-22T06:09:25;100993.00;;;10.86;100.00
1207;BME280;593;53.184;8.216;2023-02-22T06:11:50;101007.97;;;10.83;100.00
1207;BME280;593;53.184;8.216;2023-02-22T06:14:16;101004.97;;;10.85;100.00
1207;BME280;593;53.184;8.216;2023-02-22T06:16:41;100996.00;;;10.84;100.00
1207;BME280;593;53.184;8.216;2023-02-22T06:19:07;101000.09;;;10.82;100.00
1207;BME280;593;53.184;8.216;2023-02-22T06:21:32;100988.94;;;10.83;100.00
1207;BME280;593;53.184;8.216;2023-02-22T06:23:57;100999.00;;;10.83;100.00
1207;BME280;593;53.184;8.216;2023-02-22T06:26:23;100996.03;;;10.79;100.00
1207;BME280;593;53.184;8.216;2023-02-22T06:28:48;100997.13;;;10.73;100.00
1207;BME280;593;53.184;8.216;2023-02-22T06:31:14;100989.25;;;10.72;100.00
1207;BME280;593;53.184;8.216;2023-02-22T06:33:39;100997.13;;;10.68;100.00
1207;BME280;593;53.184;8.216;2023-02-22T06:36:05;100998.47;;;10.71;100.00
1207;BME280;593;53.184;8.216;2023-02-22T06:38:30;100995.75;;;10.66;100.00
1207;BME280;593;53.184;8.216;2023-02-22T06:40:56;100999.84;;;10.68;100.00
1207;BME280;593;53.184;8.216;2023-02-22T06:43:22;100983.53;;;10.68;100.00
1207;BME280;593;53.184;8.216;2023-02-22T06:45:49;100992.50;;;10.69;100.00
1207;BME280;593;53.184;8.216;2023-02-22T06:48:14;100991.41;;;10.65;100.00
1207;BME280;593;53.184;8.216;2023-02-22T06:50:40;100996.84;;;10.70;100.00
1207;BME280;593;53.184;8.216;2023-02-22T06:53:05;100990.63;;;10.64;100.00
1207;BME280;593;53.184;8.216;2023-02-22T06:55:33;100983.53;;;10.58;100.00
1207;BME280;593;53.184;8.216;2023-02-22T06:57:59;100988.16;;;10.63;100.00
1207;BME280;593;53.184;8.216;2023-02-22T07:00:26;100986.25;;;10.58;100.00
1207;BME280;593;53.184;8.216;2023-02-22T07:02:53;100992.78;;;10.57;100.00
1207;BME280;593;53.184;8.216;2023-02-22T07:05:20;100996.31;;;10.58;100.00
1207;BME280;593;53.184;8.216;2023-02-22T07:07:49;100990.34;;;10.51;100.00
1207;BME280;593;53.184;8.216;2023-02-22T07:10:24;100996.06;;;10.54;100.00
1207;BME280;593;53.184;8.216;2023-02-22T07:12:50;100990.34;;;10.51;100.00
1207;BME280;593;53.184;8.216;2023-02-22T07:15:18;100991.41;;;10.55;100.00
1207;BME280;593;53.184;8.216;2023-02-22T07:17:45;100991.41;;;10.55;100.00
1207;BME280;593;53.184;8.216;2023-02-22T07:20:10;100987.09;;;10.54;100.00
1207;BME280;593;53.184;8.216;2023-02-22T07:22:37;100981.38;;;10.50;100.00
1207;BME280;593;53.184;8.216;2023-02-22T07:25:06;100986.28;;;10.48;100.00
1207;BME280;593;53.184;8.216;2023-02-22T07:27:36;100995.78;;;10.51;100.00
1207;BME280;593;53.184;8.216;2023-02-22T07:30:02;100995.25;;;10.49;100.00
1207;BME280;593;53.184;8.216;2023-02-22T07:32:27;100986.56;;;10.47;100.00
1207;BME280;593;53.184;8.216;2023-02-22T07:34:53;100990.06;;;10.47;100.00
1207;BME280;593;53.184;8.216;2023-02-22T07:37:18;100979.75;;;10.44;100.00
1207;BME280;593;53.184;8.216;2023-02-22T07:39:45;100992.00;;;10.47;100.00
1207;BME280;593;53.184;8.216;2023-02-22T07:42:10;100995.78;;;10.46;100.00
1207;BME280;593;53.184;8.216;2023-02-22T07:44:36;100989.81;;;10.49;100.00
1207;BME280;593;53.184;8.216;2023-02-22T07:47:01;100986.81;;;10.50;100.00
1207;BME280;593;53.184;8.216;2023-02-22T07:49:27;100990.06;;;10.47;100.00
1207;BME280;593;53.184;8.216;2023-02-22T07:51:52;100990.88;;;10.48;100.00
1207;BME280;593;53.184;8.216;2023-02-22T07:54:17;100977.03;;;10.44;100.00
1207;BME280;593;53.184;8.216;2023-02-22T07:56:46;100983.84;;;10.47;100.00
1207;BME280;593;53.184;8.216;2023-02-22T07:59:12;100971.84;;;10.43;100.00
1207;BME280;593;53.184;8.216;2023-02-22T08:01:38;100973.75;;;10.42;100.00
1207;BME280;593;53.184;8.216;2023-02-22T08:04:04;100980.00;;;10.43;100.00
1207;BME280;593;53.184;8.216;2023-02-22T08:06:29;100974.88;;;10.41;100.00
1207;BME280;593;53.184;8.216;2023-02-22T08:08:56;100976.47;;;10.42;100.00
1207;BME280;593;53.184;8.216;2023-02-22T08:11:21;100977.56;;;10.41;100.00
1207;BME280;593;53.184;8.216;2023-02-22T08:13:46;100972.16;;;10.36;100.00
1207;BME280;593;53.184;8.216;2023-02-22T08:16:12;100960.44;;;10.36;100.00
1207;BME280;593;53.184;8.216;2023-02-22T08:18:37;100960.72;;;10.34;100.00
1207;BME280;593;53.184;8.216;2023-02-22T08:21:05;100964.81;;;10.42;100.00
1207;BME280;593;53.184;8.216;2023-02-22T08:23:30;100959.38;;;10.37;100.00
1207;BME280;593;53.184;8.216;2023-02-22T08:26:03;100958.25;;;10.43;100.00
1207;BME280;593;53.184;8.216;2023-02-22T08:28:29;100955.00;;;10.46;100.00
1207;BME280;593;53.184;8.216;2023-02-22T08:30:54;100960.97;;;10.48;100.00
1207;BME280;593;53.184;8.216;2023-02-22T08:33:19;100947.91;;;10.50;100.00
1207;BME280;593;53.184;8.216;2023-02-22T08:35:46;100961.78;;;10.48;100.00
1207;BME280;593;53.184;8.216;2023-02-22T08:38:22;100965.59;;;10.47;100.00
1207;BME280;593;53.184;8.216;2023-02-22T08:40:48;100944.66;;;10.38;100.00
1207;BME280;593;53.184;8.216;2023-02-22T08:43:14;100966.16;;;10.49;100.00
1207;BME280;593;53.184;8.216;2023-02-22T08:45:40;100963.16;;;10.46;100.00
1207;BME280;593;53.184;8.216;2023-02-22T08:48:06;100958.78;;;10.45;100.00
1207;BME280;593;53.184;8.216;2023-02-22T08:50:31;100952.56;;;10.44;100.00
1207;BME280;593;53.184;8.216;2023-02-22T08:53:03;100959.59;;;10.50;100.00
1207;BME280;593;53.184;8.216;2023-02-22T08:55:31;100958.53;;;10.51;100.00
1207;BME280;593;53.184;8.216;2023-02-22T08:57:58;100949.28;;;10.42;100.00
1207;BME280;593;53.184;8.216;2023-02-22T09:00:25;100955.81;;;10.51;100.00
1207;BME280;593;53.184;8.216;2023-02-22T09:02:51;100946.00;;;10.50;100.00
1207;BME280;593;53.184;8.216;2023-02-22T09:05:18;100944.09;;;10.56;100.00
1207;BME280;593;53.184;8.216;2023-02-22T09:07:44;100948.16;;;10.63;100.00
1207;BME280;593;53.184;8.216;2023-02-22T09:10:22;100948.44;;;10.67;100.00
1207;BME280;593;53.184;8.216;2023-02-22T09:12:49;100935.66;;;10.57;100.00
1207;BME280;593;53.184;8.216;2023-02-22T09:15:15;100935.91;;;10.66;100.00
1207;BME280;593;53.184;8.216;2023-02-22T09:17:41;100939.72;;;10.65;100.00
1207;BME280;593;53.184;8.216;2023-02-22T09:20:07;100935.38;;;10.69;100.00
1207;BME280;593;53.184;8.216;2023-02-22T09:22:33;100943.00;;;10.72;100.00
1207;BME280;593;53.184;8.216;2023-02-22T09:24:58;100937.81;;;10.70;100.00
1207;BME280;593;53.184;8.216;2023-02-22T09:27:24;100931.53;;;10.70;100.00
1207;BME280;593;53.184;8.216;2023-02-22T09:29:53;100925.56;;;10.68;100.00
1207;BME280;593;53.184;8.216;2023-02-22T09:32:19;100930.47;;;10.71;100.00
1207;BME280;593;53.184;8.216;2023-02-22T09:34:45;100936.19;;;10.69;100.00
1207;BME280;593;53.184;8.216;2023-02-22T09:37:12;100918.78;;;10.60;100.00
1207;BME280;593;53.184;8.216;2023-02-22T09:39:37;100926.69;;;10.67;100.00
1207;BME280;593;53.184;8.216;2023-02-22T09:47:32;100924.16;;;10.80;100.00
1207;BME280;593;53.184;8.216;2023-02-22T09:50:06;100918.19;;;10.78;100.00
1207;BME280;593;53.184;8.216;2023-02-22T09:53:01;100924.44;;;10.89;100.00
1207;BME280;593;53.184;8.216;2023-02-22T09:55:47;100922.25;;;10.86;100.00
1207;BME280;593;53.184;8.216;2023-02-22T09:58:32;100933.41;;;10.94;100.00
1207;BME280;593;53.184;8.216;2023-02-22T10:06:24;100929.84;;;10.94;100.00
1207;BME280;593;53.184;8.216;2023-02-22T10:08:52;100923.28;;;10.95;100.00
1207;BME280;593;53.184;8.216;2023-02-22T10:14:37;100917.56;;;11.02;100.00
1207;BME280;593;53.184;8.216;2023-02-22T10:20:02;100914.53;;;11.08;100.00
1207;BME280;593;53.184;8.216;2023-02-22T10:25:29;100877.28;;;11.04;100.00
1207;BME280;593;53.184;8.216;2023-02-22T10:28:08;100904.13;;;11.20;100.00
1207;BME280;593;53.184;8.216;2023-02-22T10:30:52;100902.00;;;11.17;100.00
1207;BME280;593;53.184;8.216;2023-02-22T10:33:23;100901.66;;;11.24;100.00
1207;BME280;593;53.184;8.216;2023-02-22T10:35:52;100892.41;;;11.20;100.00
1207;BME280;593;53.184;8.216;2023-02-22T10:38:30;100892.13;;;11.26;100.00
1207;BME280;593;53.184;8.216;2023-02-22T10:43:25;100884.75;;;11.32;100.00
1207;BME280;593;53.184;8.216;2023-02-22T10:45:53;100891.25;;;11.36;100.00
1207;BME280;593;53.184;8.216;2023-02-22T10:48:20;100889.31;;;11.41;100.00
1207;BME280;593;53.184;8.216;2023-02-22T10:50:47;100887.94;;;11.44;100.00
1207;BME280;593;53.184;8.216;2023-02-22T10:53:14;100875.66;;;11.46;100.00
1207;BME280;593;53.184;8.216;2023-02-22T10:58:47;100878.84;;;11.58;100.00
1207;BME280;593;53.184;8.216;2023-02-22T11:01:22;100877.16;;;11.63;100.00
1207;BME280;593;53.184;8.216;2023-02-22T11:04:18;100874.97;;;11.70;100.00
1207;BME280;593;53.184;8.216;2023-02-22T11:07:07;100873.59;;;11.72;100.00
1207;BME280;593;53.184;8.216;2023-02-22T11:09:54;100868.38;;;11.76;100.00
1207;BME280;593;53.184;8.216;2023-02-22T11:12:29;100862.84;;;11.86;100.00
1207;BME280;593;53.184;8.216;2023-02-22T11:14:59;100860.38;;;11.89;100.00
1207;BME280;593;53.184;8.216;2023-02-22T11:17:53;100862.75;;;11.96;100.00
1207;BME280;593;53.184;8.216;2023-02-22T11:20:27;100860.84;;;11.96;100.00
1207;BME280;593;53.184;8.216;2023-02-22T11:22:56;100854.00;;;11.99;100.00
1207;BME280;593;53.184;8.216;2023-02-22T11:25:29;100861.53;;;12.12;100.00
1207;BME280;593;53.184;8.216;2023-02-22T11:28:06;100846.19;;;12.16;100.00
1207;BME280;593;53.184;8.216;2023-02-22T11:30:33;100839.06;;;12.20;100.00
1207;BME280;593;53.184;8.216;2023-02-22T11:33:19;100834.41;;;12.20;100.00
1207;BME280;593;53.184;8.216;2023-02-22T11:38:23;100847.13;;;12.30;100.00
1207;BME280;593;53.184;8.216;2023-02-22T11:41:19;100837.28;;;12.34;100.00
1207;BME280;593;53.184;8.216;2023-02-22T11:43:49;100823.91;;;12.33;100.00
1207;BME280;593;53.184;8.216;2023-02-22T11:46:27;100829.06;;;12.39;100.00
1207;BME280;593;53.184;8.216;2023-02-22T11:49:05;100825.75;;;12.42;100.00
1207;BME280;593;53.184;8.216;2023-02-22T11:52:01;100822.13;;;12.47;100.00
1207;BME280;593;53.184;8.216;2023-02-22T11:57:24;100819.63;;;12.50;100.00
1207;BME280;593;53.184;8.216;2023-02-22T12:00:25;100819.50;;;12.60;100.00
1207;BME280;593;53.184;8.216;2023-02-22T12:05:52;100817.31;;;12.62;100.00
1207;BME280;593;53.184;8.216;2023-02-22T12:11:23;100817.31;;;12.62;100.00
1207;BME280;593;53.184;8.216;2023-02-22T12:21:51;100780.72;;;12.63;100.00
1207;BME280;593;53.184;8.216;2023-02-22T12:24:24;100792.00;;;12.75;100.00
1207;BME280;593;53.184;8.216;2023-02-22T12:27:17;100780.53;;;12.78;100.00
1207;BME280;593;53.184;8.216;2023-02-22T12:29:51;100791.38;;;12.83;100.00
1207;BME280;593;53.184;8.216;2023-02-22T12:32:34;100783.69;;;12.85;100.00
1207;BME280;593;53.184;8.216;2023-02-22T12:41:02;100773.91;;;12.84;100.00
1207;BME280;593;53.184;8.216;2023-02-22T12:46:43;100780.00;;;12.95;100.00
1207;BME280;593;53.184;8.216;2023-02-22T12:49:16;100775.66;;;12.94;100.00
1207;BME280;593;53.184;8.216;2023-02-22T12:54:45;100760.59;;;12.97;100.00
1207;BME280;593;53.184;8.216;2023-02-22T13:03:00;100759.94;;;13.05;100.00
1207;BME280;593;53.184;8.216;2023-02-22T13:05:33;100769.13;;;13.14;100.00
1207;BME280;593;53.184;8.216;2023-02-22T13:10:56;100778.56;;;13.21;100.00
1207;BME280;593;53.184;8.216;2023-02-22T13:19:10;100775.44;;;13.28;100.00
1207;BME280;593;53.184;8.216;2023-02-22T13:21:52;100766.13;;;13.29;100.00
1207;BME280;593;53.184;8.216;2023-02-22T13:27:09;100770.13;;;13.36;100.00
1207;BME280;593;53.184;8.216;2023-02-22T13:29:39;100753.50;;;13.33;100.00
1207;BME280;593;53.184;8.216;2023-02-22T13:35:22;100765.66;;;13.40;100.00
1207;BME280;593;53.184;8.216;2023-02-22T13:41:07;100760.19;;;13.40;100.00
1207;BME280;593;53.184;8.216;2023-02-22T13:46:50;100749.34;;;13.35;100.00
1207;BME280;593;53.184;8.216;2023-02-22T13:52:09;100742.47;;;13.38;100.00
1207;BME280;593;53.184;8.216;2023-02-22T13:54:47;100741.38;;;13.39;100.00
1207;BME280;593;53.184;8.216;2023-02-22T13:59:46;100737.03;;;13.38;100.00
1207;BME280;593;53.184;8.216;2023-02-22T14:02:33;100737.84;;;13.38;100.00
1207;BME280;593;53.184;8.216;2023-02-22T14:10:54;100736.84;;;13.48;100.00
1207;BME280;593;53.184;8.216;2023-02-22T14:13:21;100720.16;;;13.49;100.00
1207;BME280;593;53.184;8.216;2023-02-22T14:18:41;100729.19;;;13.50;100.00
1207;BME280;593;53.184;8.216;2023-02-22T14:21:10;100728.28;;;13.55;100.00
1207;BME280;593;53.184;8.216;2023-02-22T14:23:45;100736.16;;;13.56;100.00
1207;BME280;593;53.184;8.216;2023-02-22T14:26:31;100723.31;;;13.57;100.00
1207;BME280;593;53.184;8.216;2023-02-22T14:31:33;100715.94;;;13.57;100.00
1207;BME280;593;53.184;8.216;2023-02-22T14:34:07;100713.47;;;13.56;100.00
1207;BME280;593;53.184;8.216;2023-02-22T14:36:40;100718.94;;;13.56;100.00
1207;BME280;593;53.184;8.216;2023-02-22T14:39:13;100716.75;;;13.58;100.00
1207;BME280;593;53.184;8.216;2023-02-22T14:41:46;100715.72;;;13.54;100.00
1207;BME280;593;53.184;8.216;2023-02-22T14:44:16;100722.00;;;13.54;100.00
1207;BME280;593;53.184;8.216;2023-02-22T14:46:45;100704.38;;;13.46;100.00
1207;BME280;593;53.184;8.216;2023-02-22T14:49:16;100712.78;;;13.50;100.00
1207;BME280;593;53.184;8.216;2023-02-22T14:51:55;100711.38;;;13.53;100.00
1207;BME280;593;53.184;8.216;2023-02-22T14:54:30;100714.09;;;13.53;100.00
1207;BME280;593;53.184;8.216;2023-02-22T14:57:08;100716.53;;;13.54;100.00
1207;BME280;593;53.184;8.216;2023-02-22T14:59:51;100722.72;;;13.60;100.00
1207;BME280;593;53.184;8.216;2023-02-22T15:02:21;100721.09;;;13.59;100.00
1207;BME280;593;53.184;8.216;2023-02-22T15:04:51;100721.31;;;13.62;100.00
1207;BME280;593;53.184;8.216;2023-02-22T15:07:25;100721.91;;;13.59;100.00
1207;BME280;593;53.184;8.216;2023-02-22T15:10:03;100720.09;;;13.55;100.00
1207;BME280;593;53.184;8.216;2023-02-22T15:12:29;100723.31;;;13.57;100.00
1207;BME280;593;53.184;8.216;2023-02-22T15:15:18;100725.47;;;13.60;100.00
1207;BME280;593;53.184;8.216;2023-02-22T15:17:51;100714.03;;;13.58;100.00
1207;BME280;593;53.184;8.216;2023-02-22T15:20:19;100720.50;;;13.62;100.00
1207;BME280;593;53.184;8.216;2023-02-22T15:22:47;100719.69;;;13.61;100.00